createdAt,value
2022-09-10T00:01:24.443Z,87.86
2022-09-10T00:03:51.818Z,87.73
2022-09-10T00:06:19.512Z,88.02
2022-09-10T00:08:47.821Z,88.16
2022-09-10T00:11:15.191Z,88.22
2022-09-10T00:13:43.127Z,87.82
2022-09-10T00:16:14.279Z,88.92
2022-09-10T00:18:42.738Z,89.37
2022-09-10T00:21:14.345Z,88.16
2022-09-10T00:23:41.670Z,88.16
2022-09-10T00:26:16.532Z,88.41
2022-09-10T00:28:43.906Z,87.69
2022-09-10T00:31:11.295Z,87.41
2022-09-10T00:33:38.139Z,88.41
2022-09-10T00:36:23.672Z,87.80
2022-09-10T00:38:53.452Z,88.69
2022-09-10T00:41:22.741Z,90.04
2022-09-10T00:44:37.518Z,88.95
2022-09-10T00:47:26.797Z,88.37
2022-09-10T00:50:02.649Z,87.56
2022-09-10T00:52:29.515Z,88.10
2022-09-10T00:54:56.891Z,88.79
2022-09-10T00:57:25.607Z,88.33
2022-09-10T01:00:02.103Z,88.47
2022-09-10T01:02:28.863Z,89.25
2022-09-10T01:04:58.239Z,90.37
2022-09-10T01:07:29.367Z,89.97
2022-09-10T01:10:03.496Z,89.56
2022-09-10T01:12:48.429Z,88.19
2022-09-10T01:15:58.889Z,89.19
2022-09-10T01:18:40.974Z,88.52
2022-09-10T01:21:40.637Z,88.83
2022-09-10T01:24:45.295Z,89.20
2022-09-10T01:27:38.171Z,88.49
2022-09-10T01:30:46.867Z,88.20
2022-09-10T01:33:34.252Z,87.30
2022-09-10T01:36:06.952Z,88.25
2022-09-10T01:38:36.760Z,87.41
2022-09-10T01:41:04.451Z,87.98
2022-09-10T01:43:31.526Z,88.38
2022-09-10T01:46:35.276Z,88.82
2022-09-10T01:49:14.069Z,88.11
2022-09-10T01:52:06.905Z,88.35
2022-09-10T01:54:38.634Z,87.96
2022-09-10T01:58:01.511Z,87.31
2022-09-10T02:00:28.473Z,86.83
2022-09-10T02:03:16.450Z,88.47
2022-09-10T02:05:48.782Z,88.45
2022-09-10T02:08:23.519Z,88.86
2022-09-10T02:11:06.237Z,87.73
2022-09-10T02:13:34.656Z,87.31
2022-09-10T02:16:03.879Z,88.83
2022-09-10T02:18:35.468Z,89.39
2022-09-10T02:21:03.345Z,89.43
2022-09-10T02:23:56.562Z,89.33
2022-09-10T02:26:25.960Z,88.67
2022-09-10T02:28:52.858Z,88.38
2022-09-10T02:31:19.638Z,88.94
2022-09-10T02:33:46.470Z,89.83
2022-09-10T02:36:13.290Z,91.29
2022-09-10T02:38:40.513Z,92.26
2022-09-10T02:41:09.869Z,91.96
2022-09-10T02:43:38.307Z,91.84
2022-09-10T02:46:07.459Z,90.73
2022-09-10T02:48:34.283Z,91.37
2022-09-10T02:51:02.746Z,92.75
2022-09-10T02:53:31.754Z,92.46
2022-09-10T02:55:58.838Z,91.98
2022-09-10T02:58:25.609Z,92.27
2022-09-10T03:00:52.446Z,92.73
2022-09-10T03:03:19.519Z,92.64
2022-09-10T03:05:47.493Z,92.18
2022-09-10T03:08:14.267Z,91.13
2022-09-10T03:10:41.099Z,91.05
2022-09-10T03:13:08.234Z,91.06
2022-09-10T03:15:35.119Z,91.83
2022-09-10T03:18:01.865Z,91.47
2022-09-10T03:20:28.673Z,91.41
2022-09-10T03:22:55.497Z,92.64
2022-09-10T03:25:22.882Z,93.40
2022-09-10T03:27:49.719Z,93.31
2022-09-10T03:30:17.182Z,93.48
2022-09-10T03:32:44.328Z,93.83
2022-09-10T03:35:11.338Z,94.49
2022-09-10T03:37:38.054Z,94.89
2022-09-10T03:40:05.940Z,93.23
2022-09-10T03:42:32.905Z,92.03
2022-09-10T03:44:59.650Z,93.27
2022-09-10T03:47:26.364Z,94.60
2022-09-10T03:49:54.049Z,94.88
2022-09-10T03:52:22.848Z,93.87
2022-09-10T03:54:51.137Z,94.14
2022-09-10T03:57:18.318Z,92.82
2022-09-10T03:59:46.029Z,92.27
2022-09-10T04:02:12.824Z,92.92
2022-09-10T04:04:39.607Z,94.07
2022-09-10T04:07:07.205Z,93.93
2022-09-10T04:09:34.226Z,92.65
2022-09-10T04:12:00.953Z,93.04
2022-09-10T04:14:27.712Z,93.41
2022-09-10T04:16:54.711Z,93.97
2022-09-10T04:19:21.471Z,94.16
2022-09-10T04:21:48.662Z,93.23
2022-09-10T04:24:15.503Z,93.17
2022-09-10T04:26:42.312Z,94.06
2022-09-10T04:29:09.087Z,93.70
2022-09-10T04:31:35.850Z,93.54
2022-09-10T04:34:02.625Z,94.50
2022-09-10T04:36:29.348Z,93.94
2022-09-10T04:38:56.287Z,93.82
2022-09-10T04:41:23.046Z,93.40
2022-09-10T04:43:49.832Z,92.50
2022-09-10T04:46:17.745Z,91.64
2022-09-10T04:48:44.717Z,92.75
2022-09-10T04:51:17.475Z,92.87
2022-09-10T04:53:46.054Z,93.49
2022-09-10T04:56:13.684Z,93.58
2022-09-10T04:58:41.486Z,93.35
2022-09-10T05:01:08.574Z,93.86
2022-09-10T05:03:36.037Z,94.25
2022-09-10T05:06:03.899Z,95.14
2022-09-10T05:08:31.095Z,94.79
2022-09-10T05:10:58.305Z,94.64
2022-09-10T05:13:28.647Z,94.92
2022-09-10T05:15:55.407Z,94.16
2022-09-10T05:18:22.171Z,92.94
2022-09-10T05:20:48.886Z,93.44
2022-09-10T05:23:15.585Z,94.96
2022-09-10T05:25:44.612Z,95.29
2022-09-10T05:28:12.229Z,94.21
2022-09-10T05:30:39.006Z,94.70
2022-09-10T05:33:05.758Z,95.04
2022-09-10T05:35:33.455Z,94.76
2022-09-10T05:38:01.169Z,94.36
2022-09-10T05:40:28.982Z,94.28
2022-09-10T05:42:55.718Z,94.70
2022-09-10T05:45:23.565Z,95.19
2022-09-10T05:47:51.544Z,95.94
2022-09-10T05:50:18.767Z,96.72
2022-09-10T05:52:46.894Z,96.42
2022-09-10T05:55:13.848Z,96.11
2022-09-10T05:57:40.696Z,96.46
2022-09-10T06:00:09.392Z,96.65
2022-09-10T06:02:36.823Z,97.12
2022-09-10T06:05:04.144Z,96.80
2022-09-10T06:07:31.861Z,96.70
2022-09-10T06:09:58.629Z,96.75
2022-09-10T06:12:25.674Z,96.69
2022-09-10T06:14:52.942Z,96.84
2022-09-10T06:17:20.519Z,97.54
2022-09-10T06:19:47.349Z,97.41
2022-09-10T06:22:14.656Z,98.14
2022-09-10T06:24:42.336Z,98.20
2022-09-10T06:27:09.783Z,98.25
2022-09-10T06:29:36.930Z,98.27
2022-09-10T06:32:04.398Z,98.91
2022-09-10T06:34:31.509Z,98.58
2022-09-10T06:36:58.572Z,98.33
2022-09-10T06:39:25.363Z,98.26
2022-09-10T06:41:53.342Z,98.60
2022-09-10T06:44:22.496Z,98.56
2022-09-10T06:49:36.681Z,98.26
2022-09-10T06:52:03.869Z,97.41
2022-09-10T06:54:30.612Z,96.43
2022-09-10T06:56:58.184Z,95.80
2022-09-10T06:59:25.125Z,96.38
2022-09-10T07:01:52.015Z,96.21
2022-09-10T07:04:18.832Z,97.01
2022-09-10T07:06:46.723Z,95.88
2022-09-10T07:09:14.370Z,96.02
2022-09-10T07:11:41.857Z,94.57
2022-09-10T07:14:13.124Z,95.26
2022-09-10T07:16:41.664Z,95.20
2022-09-10T07:19:12.333Z,94.95
2022-09-10T07:21:39.498Z,95.48
2022-09-10T07:24:06.446Z,96.59
2022-09-10T07:26:33.431Z,95.50
2022-09-10T07:29:00.401Z,94.94
2022-09-10T07:31:35.656Z,94.31
2022-09-10T07:34:03.736Z,95.47
2022-09-10T07:36:30.659Z,94.76
2022-09-10T07:39:01.571Z,94.64
2022-09-10T07:41:30.132Z,94.69
2022-09-10T07:43:58.057Z,94.32
2022-09-10T07:46:25.790Z,92.65
2022-09-10T07:49:00.826Z,93.74
2022-09-10T07:51:30.411Z,94.60
2022-09-10T07:53:59.323Z,92.60
2022-09-10T07:56:26.713Z,93.57
2022-09-10T07:58:57.088Z,92.00
2022-09-10T08:01:24.209Z,91.09
2022-09-10T08:03:51.130Z,91.10
2022-09-10T08:06:18.470Z,91.20
2022-09-10T08:08:45.194Z,91.40
2022-09-10T08:11:16.721Z,90.67
2022-09-10T08:13:51.741Z,91.53
2022-09-10T08:16:23.966Z,90.76
2022-09-10T08:18:55.674Z,91.55
2022-09-10T08:21:22.507Z,89.70
2022-09-10T08:23:51.622Z,88.93
2022-09-10T08:26:18.997Z,89.53
2022-09-10T08:28:45.997Z,90.54
2022-09-10T08:31:13.050Z,89.94
2022-09-10T08:33:40.457Z,89.13
2022-09-10T08:36:10.626Z,88.57
2022-09-10T08:38:40.043Z,86.77
2022-09-10T08:41:32.621Z,88.22
2022-09-10T08:44:08.126Z,87.27
2022-09-10T08:46:44.527Z,86.36
2022-09-10T08:49:31.956Z,86.66
2022-09-10T08:52:11.686Z,84.67
2022-09-10T08:54:46.187Z,87.24
2022-09-10T08:57:45.287Z,88.03
2022-09-10T09:00:18.373Z,89.57
2022-09-10T09:02:49.663Z,90.20
2022-09-10T09:05:26.008Z,90.15
2022-09-10T09:07:53.342Z,91.10
2022-09-10T09:10:27.908Z,90.71
2022-09-10T09:13:22.838Z,91.37
2022-09-10T09:16:21.355Z,89.56
2022-09-10T09:19:23.597Z,90.42
2022-09-10T09:21:53.425Z,89.37
2022-09-10T09:24:39.787Z,91.31
2022-09-10T09:27:18.498Z,89.45
2022-09-10T09:30:01.299Z,90.71
2022-09-10T09:32:33.622Z,89.56
2022-09-10T09:35:11.727Z,88.34
2022-09-10T09:37:41.426Z,88.70
2022-09-10T09:40:26.548Z,86.25
2022-09-10T09:42:59.457Z,86.53
2022-09-10T09:45:40.318Z,83.94
2022-09-10T09:48:11.670Z,84.20
2022-09-10T09:50:43.779Z,86.83
2022-09-10T09:53:25.453Z,82.75
2022-09-10T09:56:04.874Z,81.75
2022-09-10T09:58:36.758Z,82.48
2022-09-10T10:01:03.558Z,84.18
2022-09-10T10:03:43.693Z,83.55
2022-09-10T10:06:12.491Z,84.04
2022-09-10T10:09:20.193Z,84.12
2022-09-10T10:11:55.277Z,84.67
2022-09-10T10:14:32.102Z,86.17
2022-09-10T10:17:00.965Z,86.41
2022-09-10T10:19:40.427Z,86.41
2022-09-10T10:22:18.726Z,87.39
2022-09-10T10:24:48.688Z,87.90
2022-09-10T10:27:30.458Z,86.49
2022-09-10T10:30:01.985Z,87.70
2022-09-10T10:32:42.190Z,90.20
2022-09-10T10:35:29.538Z,90.65
2022-09-10T10:38:25.322Z,92.32
2022-09-10T10:41:22.059Z,92.13
2022-09-10T10:44:13.390Z,94.14
2022-09-10T10:47:23.399Z,92.51
2022-09-10T10:50:12.910Z,86.95
2022-09-10T10:53:11.935Z,85.04
2022-09-10T10:55:45.547Z,81.99
2022-09-10T10:58:39.513Z,85.89
2022-09-10T11:01:37.536Z,86.73
2022-09-10T11:04:23.012Z,86.47
2022-09-10T11:07:10.820Z,85.88
2022-09-10T11:09:52.045Z,81.33
2022-09-10T11:12:38.928Z,81.87
2022-09-10T11:16:01.374Z,82.24
2022-09-10T11:18:38.075Z,80.44
2022-09-10T11:21:31.929Z,79.80
2022-09-10T11:24:18.896Z,80.88
2022-09-10T11:26:55.302Z,77.92
2022-09-10T11:29:50.053Z,78.13
2022-09-10T11:32:39.327Z,76.31
2022-09-10T11:35:35.345Z,77.19
2022-09-10T11:38:01.955Z,73.82
2022-09-10T11:40:43.835Z,71.02
2022-09-10T11:43:14.637Z,71.47
2022-09-10T11:45:53.332Z,70.85
2022-09-10T11:48:46.519Z,66.94
2022-09-10T11:51:24.344Z,67.65
2022-09-10T11:53:51.462Z,70.09
2022-09-10T11:57:01.138Z,67.55
2022-09-10T11:59:40.989Z,64.60
2022-09-10T12:02:26.473Z,65.93
2022-09-10T12:05:30.351Z,66.75
2022-09-10T12:08:30.777Z,68.06
2022-09-10T12:11:43.657Z,68.74
2022-09-10T12:14:19.702Z,70.49
2022-09-10T12:16:57.410Z,73.07
2022-09-10T12:19:29.815Z,72.92
2022-09-10T12:22:04.292Z,74.04
2022-09-10T12:24:38.089Z,75.43
2022-09-10T12:27:07.198Z,75.65
2022-09-10T12:29:40.752Z,73.79
2022-09-10T12:32:19.789Z,75.71
2022-09-10T12:34:48.553Z,74.63
2022-09-10T12:37:28.728Z,72.74
2022-09-10T12:40:26.613Z,69.09
2022-09-10T12:43:01.807Z,69.03
2022-09-10T12:46:08.919Z,69.39
2022-09-10T12:48:44.989Z,65.88
2022-09-10T12:51:20.626Z,66.47
2022-09-10T12:54:08.968Z,66.20
2022-09-10T12:56:57.641Z,62.29
2022-09-10T13:00:01.308Z,61.95
2022-09-10T13:02:34.329Z,63.04
2022-09-10T13:05:23.449Z,57.74
2022-09-10T13:08:07.351Z,56.90
2022-09-10T13:10:34.381Z,55.66
2022-09-10T13:13:05.510Z,56.50
2022-09-10T13:15:37.927Z,55.12
2022-09-10T13:18:29.909Z,54.57
2022-09-10T13:20:57.389Z,55.10
2022-09-10T13:23:47.958Z,55.32
2022-09-10T13:26:49.363Z,53.82
2022-09-10T13:29:55.892Z,53.92
2022-09-10T13:32:41.828Z,55.01
2022-09-10T13:35:17.369Z,52.10
2022-09-10T13:38:58.569Z,51.63
2022-09-10T13:41:56.949Z,52.27
2022-09-10T13:44:59.865Z,51.26
2022-09-10T13:47:41.035Z,49.70
2022-09-10T13:50:17.715Z,51.28
2022-09-10T13:52:48.105Z,50.34
2022-09-10T13:55:27.486Z,49.72
2022-09-10T13:58:18.007Z,48.26
2022-09-10T14:01:03.554Z,49.79
2022-09-10T14:03:37.090Z,48.48
2022-09-10T14:06:24.071Z,48.55
2022-09-10T14:08:57.868Z,46.66
2022-09-10T14:11:33.197Z,44.18
2022-09-10T14:14:21.124Z,46.49
2022-09-10T14:17:05.139Z,46.81
2022-09-10T14:19:47.373Z,45.31
2022-09-10T14:22:22.373Z,44.54
2022-09-10T14:24:59.936Z,42.75
2022-09-10T14:27:31.132Z,42.70
2022-09-10T14:30:36.679Z,42.56
2022-09-10T14:33:29.502Z,42.88
2022-09-10T14:35:58.208Z,41.99
2022-09-10T14:38:30.267Z,43.83
2022-09-10T14:41:08.659Z,43.24
2022-09-10T14:43:40.612Z,42.87
2022-09-10T14:46:10.284Z,43.76
2022-09-10T14:48:58.801Z,41.45
2022-09-10T14:51:25.988Z,41.18
2022-09-10T14:53:55.753Z,40.51
2022-09-10T14:56:44.348Z,39.02
2022-09-10T14:59:17.891Z,38.64
2022-09-10T15:01:48.426Z,39.73
2022-09-10T15:04:18.982Z,40.32
2022-09-10T15:06:45.734Z,40.67
2022-09-10T15:09:13.981Z,41.35
2022-09-10T15:12:05.408Z,40.75
2022-09-10T15:14:33.791Z,37.91
2022-09-10T15:17:00.706Z,36.72
2022-09-10T15:19:27.964Z,37.35
2022-09-10T15:21:54.791Z,36.85
2022-09-10T15:24:23.156Z,38.19
2022-09-10T15:26:50.584Z,39.14
2022-09-10T15:29:20.731Z,38.18
2022-09-10T15:31:47.537Z,38.29
2022-09-10T15:34:14.569Z,40.22
2022-09-10T15:36:41.909Z,41.74
2022-09-10T15:39:12.420Z,42.93
2022-09-10T15:41:44.324Z,42.70
2022-09-10T15:44:11.776Z,44.17
2022-09-10T15:46:45.451Z,45.29
2022-09-10T15:49:12.294Z,46.26
2022-09-10T15:51:39.396Z,46.78
2022-09-10T15:54:06.897Z,47.00
2022-09-10T15:56:33.873Z,47.46
2022-09-10T15:59:01.018Z,46.19
2022-09-10T16:01:29.056Z,47.15
2022-09-10T16:03:59.241Z,47.69
2022-09-10T16:06:31.654Z,47.39
2022-09-10T16:09:02.090Z,48.93
2022-09-10T16:11:31.267Z,49.11
2022-09-10T16:14:05.559Z,50.75
2022-09-10T16:16:34.894Z,49.20
2022-09-10T16:19:01.986Z,49.54
2022-09-10T16:21:32.212Z,49.82
2022-09-10T16:24:01.001Z,50.59
2022-09-10T16:26:37.059Z,50.57
2022-09-10T16:29:13.208Z,50.06
2022-09-10T16:31:40.326Z,51.34
2022-09-10T16:34:11.690Z,51.60
2022-09-10T16:36:39.600Z,51.91
2022-09-10T16:39:12.629Z,51.66
2022-09-10T16:41:40.625Z,51.95
2022-09-10T16:44:08.933Z,51.90
2022-09-10T16:46:35.773Z,52.52
2022-09-10T16:49:02.633Z,52.15
2022-09-10T16:51:29.405Z,52.86
2022-09-10T16:56:44.083Z,52.80
2022-09-10T16:59:23.454Z,52.14
2022-09-10T17:01:52.166Z,53.09
2022-09-10T17:04:27.546Z,52.17
2022-09-10T17:06:57.078Z,52.62
2022-09-10T17:09:25.006Z,52.84
2022-09-10T17:11:52.200Z,52.58
2022-09-10T17:14:19.442Z,53.83
2022-09-10T17:16:48.068Z,53.68
2022-09-10T17:19:19.573Z,54.28
2022-09-10T17:21:51.275Z,53.08
2022-09-10T17:24:20.980Z,53.18
2022-09-10T17:26:47.786Z,54.09
2022-09-10T17:29:19.030Z,55.55
2022-09-10T17:31:46.806Z,55.67
2022-09-10T17:34:17.814Z,54.70
2022-09-10T17:36:47.011Z,55.83
2022-09-10T17:39:14.915Z,55.09
2022-09-10T17:41:42.025Z,55.92
2022-09-10T17:44:11.387Z,55.50
2022-09-10T17:46:38.713Z,56.13
2022-09-10T17:49:06.556Z,56.08
2022-09-10T17:51:34.778Z,56.16
2022-09-10T17:54:03.396Z,58.21
2022-09-10T17:56:30.675Z,58.13
2022-09-10T17:59:01.696Z,58.89
2022-09-10T18:01:36.303Z,58.67
2022-09-10T18:04:04.306Z,58.75
2022-09-10T18:06:32.452Z,58.83
2022-09-10T18:09:03.010Z,58.92
2022-09-10T18:11:34.806Z,60.16
2022-09-10T18:14:02.067Z,59.24
2022-09-10T18:16:33.067Z,60.22
2022-09-10T18:19:04.278Z,60.04
2022-09-10T18:21:34.586Z,59.59
2022-09-10T18:24:07.725Z,60.52
2022-09-10T18:26:39.474Z,60.66
2022-09-10T18:29:13.896Z,61.73
2022-09-10T18:31:44.609Z,61.27
2022-09-10T18:34:19.564Z,61.57
2022-09-10T18:36:53.502Z,61.86
2022-09-10T18:39:20.933Z,61.65
2022-09-10T18:41:47.762Z,61.56
2022-09-10T18:44:21.865Z,61.67
2022-09-10T18:46:50.706Z,60.97
2022-09-10T18:49:21.524Z,61.44
2022-09-10T18:51:48.852Z,61.03
2022-09-10T18:54:17.333Z,61.36
2022-09-10T18:56:45.466Z,60.56
2022-09-10T18:59:17.079Z,61.24
2022-09-10T19:01:45.728Z,62.23
2022-09-10T19:04:16.949Z,61.81
2022-09-10T19:06:46.953Z,62.28
2022-09-10T19:09:20.254Z,62.81
2022-09-10T19:11:49.293Z,62.60
2022-09-10T19:14:26.204Z,63.88
2022-09-10T19:16:54.256Z,63.18
2022-09-10T19:19:24.608Z,62.23
2022-09-10T19:21:55.505Z,62.71
2022-09-10T19:24:44.064Z,63.36
2022-09-10T19:27:13.213Z,64.24
2022-09-10T19:29:43.163Z,63.46
2022-09-10T19:32:11.402Z,64.41
2022-09-10T19:34:39.098Z,64.14
2022-09-10T19:37:07.225Z,64.70
2022-09-10T19:39:34.130Z,62.87
2022-09-10T19:42:01.047Z,62.85
2022-09-10T19:44:28.117Z,63.29
2022-09-10T19:46:55.410Z,63.61
2022-09-10T19:49:22.381Z,63.96
2022-09-10T19:51:49.260Z,64.87
2022-09-10T19:54:16.360Z,65.12
2022-09-10T19:56:43.886Z,65.36
2022-09-10T19:59:10.728Z,65.14
2022-09-10T20:01:42.465Z,65.92
2022-09-10T20:04:12.193Z,66.63
2022-09-10T20:06:39.555Z,66.89
2022-09-10T20:09:08.816Z,65.81
2022-09-10T20:11:36.692Z,66.24
2022-09-10T20:14:08.113Z,67.32
2022-09-10T20:16:42.552Z,68.36
2022-09-10T20:19:13.193Z,67.32
2022-09-10T20:21:40.178Z,66.99
2022-09-10T20:24:07.809Z,68.99
2022-09-10T20:26:41.247Z,69.53
2022-09-10T20:29:12.605Z,69.47
2022-09-10T20:31:41.334Z,70.11
2022-09-10T20:34:15.877Z,69.79
2022-09-10T20:36:42.756Z,70.26
2022-09-10T20:39:11.775Z,69.57
2022-09-10T20:41:40.077Z,69.84
2022-09-10T20:44:07.624Z,70.44
2022-09-10T20:46:34.610Z,70.80
2022-09-10T20:49:04.818Z,72.47
2022-09-10T20:51:38.381Z,72.11
2022-09-10T20:54:10.041Z,71.52
2022-09-10T20:56:36.774Z,71.25
2022-09-10T20:59:03.522Z,72.58
2022-09-10T21:01:34.406Z,73.28
2022-09-10T21:04:04.210Z,72.23
2022-09-10T21:06:33.390Z,72.94
2022-09-10T21:09:02.680Z,72.26
2022-09-10T21:11:33.261Z,71.80
2022-09-10T21:14:03.266Z,71.64
2022-09-10T21:16:36.725Z,71.36
2022-09-10T21:19:07.987Z,72.17
2022-09-10T21:21:36.670Z,72.15
2022-09-10T21:24:07.521Z,73.09
2022-09-10T21:26:37.842Z,73.44
2022-09-10T21:29:08.037Z,73.27
2022-09-10T21:31:36.070Z,72.26
2022-09-10T21:34:03.689Z,73.45
2022-09-10T21:36:32.801Z,73.69
2022-09-10T21:39:02.649Z,74.31
2022-09-10T21:41:35.843Z,73.54
2022-09-10T21:44:07.053Z,72.93
2022-09-10T21:46:34.468Z,73.73
2022-09-10T21:49:02.414Z,73.86
2022-09-10T21:51:29.438Z,73.84
2022-09-10T21:53:58.224Z,73.55
2022-09-10T21:56:27.670Z,74.72
2022-09-10T21:58:56.711Z,74.35
2022-09-10T22:01:27.809Z,74.73
2022-09-10T22:04:02.943Z,75.02
2022-09-10T22:06:33.039Z,75.53
2022-09-10T22:09:05.172Z,75.69
2022-09-10T22:11:38.980Z,75.63
2022-09-10T22:14:18.248Z,75.60
2022-09-10T22:16:48.287Z,76.25
2022-09-10T22:19:22.656Z,75.63
2022-09-10T22:21:50.215Z,75.38
2022-09-10T22:24:20.325Z,76.12
2022-09-10T22:26:47.534Z,76.41
2022-09-10T22:29:18.567Z,76.84
2022-09-10T22:31:46.460Z,77.05
2022-09-10T22:34:15.396Z,77.44
2022-09-10T22:36:44.881Z,77.51
2022-09-10T22:39:16.878Z,78.45
2022-09-10T22:41:44.798Z,77.98
2022-09-10T22:44:12.382Z,79.04
2022-09-10T22:46:40.374Z,78.72
2022-09-10T22:49:07.945Z,78.86
2022-09-10T22:51:39.965Z,78.06
2022-09-10T22:54:07.914Z,78.59
2022-09-10T22:56:38.013Z,79.46
2022-09-10T22:59:06.499Z,79.78
2022-09-10T23:01:38.248Z,79.57
2022-09-10T23:04:07.481Z,79.09
2022-09-10T23:06:36.983Z,79.34
2022-09-10T23:09:11.884Z,79.32
2022-09-10T23:11:39.849Z,79.63
2022-09-10T23:14:19.163Z,79.99
2022-09-10T23:16:48.655Z,80.31
2022-09-10T23:19:24.923Z,80.04
2022-09-10T23:21:55.181Z,79.98
2022-09-10T23:24:24.938Z,80.33
2022-09-10T23:26:51.980Z,80.78
2022-09-10T23:29:18.941Z,80.78
2022-09-10T23:31:47.853Z,80.52
2022-09-10T23:34:17.960Z,80.13
2022-09-10T23:36:47.388Z,81.17
2022-09-10T23:39:18.214Z,81.42
2022-09-10T23:41:45.034Z,80.08
2022-09-10T23:44:12.524Z,80.52
2022-09-10T23:46:39.710Z,81.56
2022-09-10T23:49:07.609Z,80.50
2022-09-10T23:51:35.194Z,81.68
2022-09-10T23:54:01.975Z,81.94
2022-09-10T23:56:29.139Z,81.84
2022-09-10T23:58:59.327Z,81.67
